.
WxDataArchive / Data Records for 2011-09-06
2011-09-05 September 2011 2011-09-07

Data Records for Tuesday, 06 September 2011

Time	Temp	Chill	HIndex	Humid	Dewpt	 Wind 	HiWind	WindDir	Rain 	Barom 
-----	----	-----	------	-----	-----	------	------	-------	-----	----- 
00:00	53.1	53.1	53.1	73	44.7	0	2	112	0.00	30.079 
00:05	52.9	52.9	52.9	73	44.5	0	1	112	0.00	30.079 
00:10	52.6	52.6	52.6	73	44.2	0	1	112	0.00	30.079 
00:15	52.5	52.5	52.5	73	44.1	0	0	---	0.00	30.079 
00:20	52.3	52.3	52.3	73	43.9	0	2	112	0.00	30.079 
00:25	52.0	52.0	52.0	73	43.6	0	1	112	0.00	30.079 
00:30	51.9	51.9	51.9	74	43.9	0	1	112	0.00	30.079 
00:35	51.7	51.7	51.7	74	43.7	0	3	112	0.00	30.079 
00:40	51.7	51.7	51.7	74	43.7	0	6	135	0.00	30.079 
00:45	51.6	51.6	51.6	74	43.6	0	0	---	0.00	30.076 
00:50	51.4	51.4	51.4	74	43.4	0	0	---	0.00	30.076 
00:55	51.3	51.3	51.3	74	43.3	0	1	135	0.00	30.076 
01:00	51.3	51.3	51.3	75	43.6	0	0	---	0.00	30.077 
01:05	51.1	51.1	51.1	75	43.5	0	0	---	0.00	30.077 
01:10	51.1	51.1	51.1	75	43.5	0	1	135	0.00	30.077 
01:15	51.1	51.1	51.1	75	43.5	0	0	---	0.00	30.076 
01:20	51.1	51.1	51.1	75	43.5	0	2	135	0.00	30.076 
01:25	51.1	51.1	51.1	75	43.5	0	1	135	0.00	30.076 
01:30	51.1	51.1	51.1	75	43.5	0	0	---	0.00	30.076 
01:35	51.1	51.1	51.1	75	43.5	0	0	---	0.00	30.076 
01:40	51.0	51.0	51.0	75	43.4	0	0	---	0.00	30.076 
01:45	51.0	51.0	51.0	75	43.4	0	0	---	0.00	30.072 
01:50	51.0	51.0	51.0	75	43.4	0	1	135	0.00	30.072 
01:55	51.0	51.0	51.0	75	43.4	0	0	---	0.00	30.072 
02:00	51.0	51.0	51.0	75	43.4	0	1	135	0.00	30.074 
02:05	51.0	51.0	51.0	75	43.4	0	2	135	0.00	30.074 
02:10	51.0	51.0	51.0	75	43.4	0	1	135	0.00	30.074 
02:15	51.0	51.0	51.0	75	43.4	0	1	135	0.00	30.076 
02:20	50.8	50.8	50.8	76	43.5	0	2	135	0.00	30.076 
02:25	50.7	50.7	50.7	76	43.4	0	0	---	0.00	30.076 
02:30	50.5	50.5	50.5	77	43.6	0	2	135	0.00	30.073 
02:35	50.4	50.4	50.4	77	43.5	0	3	135	0.00	30.073 
02:40	50.4	50.4	50.4	77	43.5	0	2	135	0.00	30.073 
02:45	50.2	50.2	50.2	78	43.6	0	3	45	0.00	30.069 
02:50	50.2	50.2	50.2	78	43.6	0	1	45	0.00	30.069 
02:55	50.2	50.2	50.2	78	43.6	0	1	45	0.00	30.069 
03:00	50.2	50.2	50.2	77	43.3	0	1	45	0.00	30.070 
03:05	50.2	50.2	50.2	77	43.3	0	5	90	0.00	30.070 
03:10	50.2	50.2	50.2	77	43.3	0	1	90	0.00	30.070 
03:15	50.2	50.2	50.2	77	43.3	0	0	---	0.00	30.073 
03:20	50.2	50.2	50.2	78	43.6	0	4	135	0.00	30.073 
03:25	50.2	50.2	50.2	78	43.6	0	0	---	0.00	30.073 
03:30	50.1	50.1	50.1	78	43.5	0	1	135	0.00	30.074 
03:35	50.1	50.1	50.1	78	43.5	0	1	135	0.00	30.074 
03:40	49.9	49.9	49.9	78	43.3	0	3	90	0.00	30.074 
03:45	49.9	49.9	49.9	78	43.3	0	0	---	0.00	30.069 
03:50	49.8	49.8	49.8	79	43.6	0	4	158	0.00	30.069 
03:55	49.8	49.8	49.8	79	43.6	0	0	---	0.00	30.069 
04:00	49.8	49.8	49.8	79	43.6	0	3	158	0.00	30.070 
04:05	49.6	49.6	49.6	80	43.7	0	0	---	0.00	30.070 
04:10	49.6	49.6	49.6	80	43.7	0	1	135	0.00	30.070 
04:15	49.5	49.5	49.5	79	43.3	0	1	135	0.00	30.074 
04:20	49.5	49.5	49.5	80	43.6	0	1	135	0.00	30.074 
04:25	49.4	49.4	49.4	80	43.5	0	0	---	0.00	30.074 
04:30	49.4	49.4	49.4	80	43.5	0	3	112	0.00	30.075 
04:35	49.2	49.2	49.2	80	43.3	0	0	---	0.00	30.075 
04:40	49.2	49.2	49.2	80	43.3	0	0	---	0.00	30.075 
04:45	49.1	49.1	49.1	81	43.5	0	1	112	0.00	30.073 
04:50	49.1	49.1	49.1	81	43.5	0	0	---	0.00	30.073 
04:55	48.9	48.9	48.9	81	43.3	0	0	---	0.00	30.073 
05:00	48.9	48.9	48.9	81	43.3	0	0	---	0.00	30.074 
05:05	48.9	48.9	48.9	81	43.3	0	0	---	0.00	30.074 
05:10	48.8	48.8	48.8	81	43.2	0	0	---	0.00	30.074 
05:15	48.8	48.8	48.8	81	43.2	0	1	112	0.00	30.077 
05:20	48.8	48.8	48.8	82	43.6	0	0	---	0.00	30.077 
05:25	48.6	48.6	48.6	82	43.4	0	0	---	0.00	30.077 
05:30	48.6	48.6	48.6	82	43.4	0	0	---	0.00	30.073 
05:35	48.6	48.6	48.6	82	43.4	0	1	112	0.00	30.073 
05:40	48.6	48.6	48.6	82	43.4	0	0	---	0.00	30.073 
05:45	48.6	48.6	48.6	82	43.4	0	1	112	0.00	30.072 
05:50	48.6	48.6	48.6	82	43.4	0	0	---	0.00	30.072 
05:55	48.5	48.5	48.5	82	43.3	0	0	---	0.00	30.072 
06:00	48.5	48.5	48.5	82	43.3	0	1	112	0.00	30.073 
06:05	48.5	48.5	48.5	82	43.3	0	1	112	0.00	30.073 
06:10	48.5	48.5	48.5	82	43.3	0	1	112	0.00	30.073 
06:15	48.6	48.6	48.6	82	43.4	0	2	112	0.00	30.076 
06:20	48.8	48.8	48.8	82	43.6	0	3	112	0.00	30.076 
06:25	48.9	48.9	48.9	82	43.6	0	3	112	0.00	30.076 
06:30	49.2	49.2	49.2	81	43.6	0	2	112	0.00	30.078 
06:35	49.4	49.4	49.4	81	43.8	0	2	135	0.00	30.078 
06:40	49.5	49.5	49.5	81	43.9	0	1	135	0.00	30.078 
06:45	49.8	49.8	49.8	81	44.2	0	1	135	0.00	30.075 
06:50	49.8	49.8	49.8	81	44.2	0	1	135	0.00	30.075 
06:55	49.9	49.9	49.9	81	44.3	0	1	135	0.00	30.075 
07:00	50.1	50.1	50.1	81	44.5	0	5	135	0.00	30.079 
07:05	50.2	50.2	50.2	80	44.3	0	1	135	0.00	30.079 
07:10	50.4	50.4	50.4	80	44.5	0	1	135	0.00	30.079 
07:15	50.5	50.5	50.5	80	44.6	0	1	135	0.00	30.091 
07:20	50.7	50.7	50.7	79	44.4	0	3	248	0.00	30.091 
07:25	50.8	50.8	50.8	80	44.9	0	2	135	0.00	30.091 
07:30	51.0	51.0	51.0	79	44.7	0	1	135	0.00	30.092 
07:35	51.0	51.0	51.0	79	44.7	0	1	45	0.00	30.092 
07:40	51.1	51.1	51.1	79	44.8	0	1	45	0.00	30.092 
07:45	51.3	51.3	51.3	79	45.0	0	2	180	0.00	30.093 
07:50	51.3	51.3	51.3	79	45.0	0	4	112	0.00	30.093 
07:55	51.4	51.4	51.4	79	45.1	0	2	112	0.00	30.093 
08:00	51.4	51.4	51.4	79	45.1	0	2	112	0.00	30.095 
08:05	51.6	51.6	51.6	79	45.3	0	2	112	0.00	30.095 
08:10	51.7	51.7	51.7	79	45.4	0	1	112	0.00	30.095 
08:15	51.9	51.9	51.9	79	45.6	0	3	112	0.00	30.093 
08:20	52.0	52.0	52.0	79	45.7	0	1	112	0.00	30.093 
08:25	52.2	52.2	52.2	78	45.5	0	3	112	0.00	30.093 
08:30	52.3	52.3	52.3	78	45.6	0	4	135	0.00	30.096 
08:35	52.5	52.5	52.5	78	45.8	1	7	135	0.00	30.096 
08:40	52.6	52.6	52.6	78	45.9	0	4	135	0.00	30.096 
08:45	52.9	52.9	52.9	77	45.9	0	4	112	0.00	30.102 
08:50	53.1	53.1	53.1	77	46.1	2	6	112	0.00	30.102 
08:55	53.3	53.3	53.3	77	46.3	0	3	90	0.00	30.102 
09:00	53.6	53.6	53.6	77	46.6	1	7	90	0.00	30.098 
09:05	53.9	53.9	53.9	76	46.5	1	6	292	0.00	30.098 
09:10	54.1	54.1	54.1	76	46.7	2	6	112	0.00	30.098 
09:15	54.4	54.4	54.4	76	47.0	1	6	68	0.00	30.099 
09:20	54.5	54.5	54.5	76	47.1	1	4	135	0.00	30.099 
09:25	54.7	54.7	54.7	76	47.3	1	6	112	0.00	30.099 
09:30	54.8	54.8	54.8	75	47.0	1	6	112	0.00	30.105 
09:35	55.0	55.0	55.0	76	47.6	1	4	90	0.00	30.105 
09:40	55.3	55.3	55.3	76	47.9	1	5	112	0.00	30.105 
09:45	55.7	55.7	55.7	74	47.5	1	9	135	0.00	30.107 
09:50	56.0	56.0	56.0	74	47.8	1	6	112	0.00	30.107 
09:55	56.3	56.3	56.3	74	48.1	1	5	90	0.00	30.107 
10:00	56.6	56.6	56.6	73	48.0	1	7	90	0.00	30.105 
10:05	56.6	56.6	56.6	73	48.0	1	3	112	0.00	30.105 
10:10	56.7	56.7	56.7	73	48.1	2	7	135	0.00	30.105 
10:15	56.9	56.9	56.9	73	48.3	1	7	90	0.00	30.113 
10:20	57.0	57.0	57.0	73	48.4	2	5	90	0.00	30.113 
10:25	57.3	57.3	57.3	72	48.3	2	10	90	0.00	30.113 
10:30	57.5	57.5	57.5	72	48.5	1	6	68	0.00	30.113 
10:35	57.8	57.8	57.8	73	49.2	1	4	112	0.00	30.113 
10:40	58.1	58.1	58.1	72	49.1	1	4	135	0.00	30.113 
10:45	58.3	58.3	58.3	72	49.3	1	6	112	0.00	30.108 
10:50	58.1	58.1	58.1	71	48.7	2	7	90	0.00	30.108 
10:55	58.1	58.1	58.1	70	48.4	3	10	90	0.00	30.108 
11:00	58.1	58.1	58.1	71	48.7	3	8	90	0.00	30.112 
11:05	58.3	58.3	58.3	71	48.9	1	5	90	0.00	30.112 
11:10	58.3	58.3	58.3	71	48.9	2	7	90	0.00	30.112 
11:15	58.3	58.3	58.3	71	48.9	2	7	90	0.00	30.109 
11:20	58.9	58.9	58.9	70	49.1	2	7	90	0.00	30.109 
11:25	59.9	59.9	59.9	68	49.3	1	5	90	0.00	30.109 
11:30	60.4	60.4	60.4	65	48.6	3	7	90	0.00	30.104 
11:35	60.2	60.2	60.2	64	48.0	4	15	90	0.00	30.104 
11:40	60.2	60.2	60.2	62	47.1	3	12	90	0.00	30.104 
11:45	60.4	60.4	60.4	62	47.3	4	10	90	0.00	30.103 
11:50	60.4	60.4	60.4	63	47.7	4	13	90	0.00	30.103 
11:55	61.0	61.0	61.0	63	48.3	3	11	90	0.00	30.103 
12:00	61.6	61.6	61.6	62	48.4	2	8	45	0.00	30.105 
12:05	62.3	62.3	62.3	59	47.8	3	10	68	0.00	30.105 
12:10	62.3	62.3	62.3	58	47.3	5	16	90	0.00	30.105 
12:15	62.9	62.9	62.9	60	48.8	2	9	112	0.00	30.101 
12:20	63.5	63.5	63.5	57	48.0	4	10	90	0.00	30.101 
12:25	63.9	63.9	63.9	56	47.9	4	10	90	0.00	30.101 
12:30	64.0	64.0	64.0	57	48.5	3	7	112	0.00	30.105 
12:35	64.0	64.0	64.0	58	48.9	3	9	112	0.00	30.105 
12:40	63.5	63.5	63.5	58	48.5	3	10	90	0.00	30.105 
12:45	63.9	63.9	63.9	57	48.4	4	8	90	0.00	30.097 
12:50	64.0	64.0	64.0	58	48.9	3	10	90	0.00	30.097 
12:55	64.5	64.5	64.5	57	48.9	3	10	90	0.00	30.097 
13:00	64.0	64.0	64.0	59	49.4	2	10	90	0.00	30.100 
13:05	64.2	64.2	64.2	57	48.6	3	12	135	0.00	30.100 
13:10	64.0	64.0	64.0	58	48.9	3	9	90	0.00	30.100 
13:15	64.5	64.5	64.5	57	48.9	1	5	90	0.00	30.089 
13:20	65.2	65.2	65.2	56	49.1	2	7	68	0.00	30.089 
13:25	65.5	65.5	65.5	56	49.4	3	12	68	0.00	30.089 
13:30	65.8	65.8	65.8	56	49.7	2	9	112	0.00	30.091 
13:35	66.0	66.0	66.0	55	49.4	3	10	90	0.00	30.091 
13:40	66.0	66.0	66.0	53	48.4	4	10	90	0.00	30.091 
13:45	66.0	66.0	66.0	54	48.9	3	10	90	0.00	30.096 
13:50	65.5	65.5	65.5	55	48.9	3	7	90	0.00	30.096 
13:55	65.0	65.0	65.0	58	49.9	4	10	90	0.00	30.096 
14:00	65.3	65.3	65.3	55	48.7	2	7	90	0.00	30.090 
14:05	65.2	65.2	65.2	56	49.1	2	12	112	0.00	30.090 
14:10	65.5	65.5	65.5	55	48.9	3	10	90	0.00	30.090 
14:15	65.8	65.8	65.8	55	49.2	3	13	90	0.00	30.086 
14:20	66.1	66.1	66.1	55	49.5	2	11	270	0.00	30.086 
14:25	65.8	65.8	65.8	55	49.2	1	5	315	0.00	30.086 
14:30	65.2	65.2	65.2	55	48.6	2	6	0	0.00	30.086 
14:35	65.5	65.5	65.5	57	49.9	1	7	90	0.00	30.086 
14:40	66.1	66.1	66.1	55	49.5	2	6	90	0.00	30.086 
14:45	66.8	66.8	66.8	53	49.1	4	11	112	0.00	30.081 
14:50	67.3	67.3	67.3	51	48.5	2	9	68	0.00	30.081 
14:55	66.9	66.9	66.9	53	49.2	2	10	112	0.00	30.081 
15:00	66.4	66.4	66.4	53	48.7	3	10	90	0.00	30.080 
15:05	66.8	66.8	66.8	54	49.6	3	10	90	0.00	30.080 
15:10	66.9	66.9	66.9	54	49.7	2	6	90	0.00	30.080 
15:15	66.8	66.8	66.8	52	48.6	3	9	90	0.00	30.070 
15:20	66.9	66.9	66.9	53	49.2	3	8	90	0.00	30.070 
15:25	66.9	66.9	66.9	53	49.2	3	10	112	0.00	30.070 
15:30	67.4	67.4	67.4	52	49.2	3	7	90	0.00	30.062 
15:35	67.8	67.8	67.8	52	49.5	3	12	112	0.00	30.062 
15:40	67.4	67.4	67.4	52	49.2	4	10	112	0.00	30.062 
15:45	67.3	67.3	67.3	52	49.1	3	10	90	0.00	30.068 
15:50	67.4	67.4	67.4	52	49.2	2	9	135	0.00	30.068 
15:55	67.4	67.4	67.4	52	49.2	1	6	158	0.00	30.068 
16:00	67.1	67.1	67.1	53	49.4	1	7	135	0.00	30.067 
16:05	66.9	66.9	66.9	52	48.7	2	7	90	0.00	30.067 
16:10	66.9	66.9	66.9	53	49.2	1	5	90	0.00	30.067 
16:15	67.3	67.3	67.3	52	49.1	2	5	90	0.00	30.064 
16:20	67.4	67.4	67.4	51	48.6	3	10	112	0.00	30.064 
16:25	67.4	67.4	67.4	52	49.2	2	7	90	0.00	30.064 
16:30	67.8	67.8	67.8	52	49.5	4	9	90	0.00	30.063 
16:35	67.6	67.6	67.6	51	48.8	3	7	90	0.00	30.063 
16:40	67.6	67.6	67.6	51	48.8	3	11	112	0.00	30.063 
16:45	67.6	67.6	67.6	50	48.3	5	13	90	0.00	30.057 
16:50	67.6	67.6	67.6	52	49.3	3	7	112	0.00	30.057 
16:55	68.4	68.4	68.4	51	49.6	1	9	270	0.00	30.057 
17:00	68.3	68.3	68.3	51	49.5	2	9	90	0.00	30.055 
17:05	68.1	68.1	68.1	51	49.3	3	14	90	0.00	30.055 
17:10	67.8	67.8	67.8	51	49.0	3	7	90	0.00	30.055 
17:15	67.4	67.4	67.4	52	49.2	3	11	112	0.00	30.056 
17:20	67.3	67.3	67.3	51	48.5	2	7	45	0.00	30.056 
17:25	67.1	67.1	67.1	53	49.4	2	7	90	0.00	30.056 
17:30	67.3	67.3	67.3	52	49.1	3	6	90	0.00	30.054 
17:35	67.1	67.1	67.1	53	49.4	2	5	112	0.00	30.054 
17:40	67.1	67.1	67.1	53	49.4	2	10	90	0.00	30.054 
17:45	67.3	67.3	67.3	54	50.1	3	9	90	0.00	30.055 
17:50	66.9	66.9	66.9	53	49.2	4	10	112	0.00	30.055 
17:55	66.8	66.8	66.8	53	49.1	3	8	90	0.00	30.055 
18:00	66.6	66.6	66.6	53	48.9	3	7	90	0.00	30.056 
18:05	66.6	66.6	66.6	54	49.4	3	7	90	0.00	30.056 
18:10	66.6	66.6	66.6	54	49.4	4	10	90	0.00	30.056 
18:15	66.4	66.4	66.4	55	49.7	3	7	112	0.00	30.054 
18:20	66.3	66.3	66.3	56	50.1	4	12	90	0.00	30.054 
18:25	66.0	66.0	66.0	56	49.8	4	12	90	0.00	30.054 
18:30	65.8	65.8	65.8	56	49.7	3	10	90	0.00	30.056 
18:35	65.6	65.6	65.6	57	49.9	3	12	90	0.00	30.056 
18:40	65.3	65.3	65.3	57	49.7	4	10	90	0.00	30.056 
18:45	65.2	65.2	65.2	58	50.0	3	9	90	0.00	30.063 
18:50	65.0	65.0	65.0	58	49.9	3	11	112	0.00	30.063 
18:55	65.0	65.0	65.0	58	49.9	2	9	90	0.00	30.063 
19:00	64.8	64.8	64.8	59	50.1	3	10	90	0.00	30.063 
19:05	64.7	64.7	64.7	59	50.0	3	11	90	0.00	30.063 
19:10	64.5	64.5	64.5	59	49.8	3	13	90	0.00	30.063 
19:15	64.2	64.2	64.2	59	49.6	4	10	90	0.00	30.061 
19:20	64.0	64.0	64.0	60	49.8	2	9	90	0.00	30.061 
19:25	63.9	63.9	63.9	60	49.7	3	7	90	0.00	30.061 
19:30	63.7	63.7	63.7	61	50.0	2	4	90	0.00	30.062 
19:35	63.5	63.5	63.5	61	49.8	1	4	68	0.00	30.062 
19:40	63.4	63.4	63.4	61	49.7	2	4	135	0.00	30.062 
19:45	63.4	63.4	63.4	61	49.7	3	9	90	0.00	30.060 
19:50	63.2	63.2	63.2	62	50.0	2	4	90	0.00	30.060 
19:55	63.1	63.1	63.1	62	49.9	2	7	90	0.00	30.060 
20:00	62.9	62.9	62.9	62	49.7	1	5	90	0.00	30.064 
20:05	62.7	62.7	62.7	63	49.9	1	3	90	0.00	30.064 
20:10	62.4	62.4	62.4	63	49.6	1	11	90	0.00	30.064 
20:15	62.3	62.3	62.3	64	50.0	2	4	112	0.00	30.068 
20:20	62.0	62.0	62.0	65	50.1	1	4	112	0.00	30.068 
20:25	61.8	61.8	61.8	65	49.9	3	9	90	0.00	30.068 
20:30	61.6	61.6	61.6	66	50.1	1	5	90	0.00	30.069 
20:35	61.3	61.3	61.3	66	49.8	1	5	112	0.00	30.069 
20:40	61.2	61.2	61.2	67	50.2	1	4	90	0.00	30.069 
20:45	61.0	61.0	61.0	67	50.0	1	6	90	0.00	30.071 
20:50	60.7	60.7	60.7	67	49.7	1	4	90	0.00	30.071 
20:55	60.5	60.5	60.5	68	49.9	1	5	90	0.00	30.071 
21:00	60.4	60.4	60.4	69	50.2	1	5	90	0.00	30.073 
21:05	60.2	60.2	60.2	69	50.0	1	3	90	0.00	30.073 
21:10	60.1	60.1	60.1	70	50.3	1	5	90	0.00	30.073 
21:15	59.9	59.9	59.9	70	50.1	1	5	90	0.00	30.078 
21:20	59.8	59.8	59.8	71	50.4	1	3	68	0.00	30.078 
21:25	59.6	59.6	59.6	71	50.2	1	7	68	0.00	30.078 
21:30	59.5	59.5	59.5	72	50.5	2	4	90	0.00	30.084 
21:35	59.3	59.3	59.3	72	50.3	1	4	90	0.00	30.084 
21:40	59.3	59.3	59.3	72	50.3	1	3	68	0.00	30.084 
21:45	59.2	59.2	59.2	72	50.2	2	6	90	0.00	30.086 
21:50	59.2	59.2	59.2	72	50.2	1	3	90	0.00	30.086 
21:55	59.0	59.0	59.0	73	50.4	0	3	90	0.00	30.086 
22:00	58.9	58.9	58.9	73	50.3	0	2	90	0.00	30.087 
22:05	58.6	58.6	58.6	74	50.3	0	2	90	0.00	30.087 
22:10	58.4	58.4	58.4	74	50.1	1	4	90	0.00	30.087 
22:15	58.4	58.4	58.4	74	50.1	1	3	112	0.00	30.086 
22:20	58.3	58.3	58.3	74	50.0	0	4	112	0.00	30.086 
22:25	58.3	58.3	58.3	74	50.0	1	4	112	0.00	30.086 
22:30	58.1	58.1	58.1	74	49.9	1	6	90	0.00	30.088 
22:35	58.1	58.1	58.1	74	49.9	1	4	90	0.00	30.088 
22:40	58.1	58.1	58.1	75	50.2	0	4	68	0.00	30.088 
22:45	58.0	58.0	58.0	75	50.1	0	3	68	0.00	30.087 
22:50	57.8	57.8	57.8	75	49.9	0	3	68	0.00	30.087 
22:55	57.5	57.5	57.5	75	49.6	0	1	90	0.00	30.087 
23:00	57.3	57.3	57.3	76	49.8	0	1	90	0.00	30.086 
23:05	57.3	57.3	57.3	76	49.8	0	2	90	0.00	30.086 
23:10	57.2	57.2	57.2	76	49.7	0	3	90	0.00	30.086 
23:15	57.2	57.2	57.2	76	49.7	0	3	90	0.00	30.084 
23:20	57.0	57.0	57.0	77	49.9	0	1	90	0.00	30.084 
23:25	56.9	56.9	56.9	77	49.8	0	1	90	0.00	30.084 
23:30	56.7	56.7	56.7	77	49.6	0	0	---	0.00	30.076 
23:35	56.6	56.6	56.6	78	49.8	0	2	90	0.00	30.076 
23:40	56.5	56.5	56.5	78	49.7	0	2	90	0.00	30.076 
23:45	56.3	56.3	56.3	78	49.5	0	2	90	0.00	30.070 
23:50	56.3	56.3	56.3	78	49.5	0	1	90	0.00	30.070 
23:55	56.2	56.2	56.2	78	49.4	0	3	90	0.00	30.070 

CoCoRaHS
IN-AL-39
A2 Web Hosting
Creative Commons License
GoDaddy
search engine by freefind advanced

loaded 2018-11-19 19:08:36 • last modified 2010-11-18 10:43:29
Privacy PolicyDisclaimer
• wx.awcolley.com is powered by PmWiki v.2002016 •
• all content (unless otherwise noted) © 2018 A W Colley